sensor_id;sensor_type;location;lat;lon;timestamp;temperature;humidity
7218;DHT22;3650;53.580;10.094;2023-08-20T00:01:56;21.60;94.10
7218;DHT22;3650;53.580;10.094;2023-08-20T00:04:26;21.50;94.20
7218;DHT22;3650;53.580;10.094;2023-08-20T00:06:53;21.50;94.40
7218;DHT22;3650;53.580;10.094;2023-08-20T00:09:20;21.50;94.40
7218;DHT22;3650;53.580;10.094;2023-08-20T00:11:47;21.40;94.40
7218;DHT22;3650;53.580;10.094;2023-08-20T00:14:17;21.40;94.50
7218;DHT22;3650;53.580;10.094;2023-08-20T00:16:45;21.40;94.80
7218;DHT22;3650;53.580;10.094;2023-08-20T00:19:13;21.40;94.80
7218;DHT22;3650;53.580;10.094;2023-08-20T00:21:41;21.40;94.80
7218;DHT22;3650;53.580;10.094;2023-08-20T00:24:10;21.40;94.80
7218;DHT22;3650;53.580;10.094;2023-08-20T00:26:38;21.30;94.80
7218;DHT22;3650;53.580;10.094;2023-08-20T00:29:04;21.30;95.10
7218;DHT22;3650;53.580;10.094;2023-08-20T00:31:33;21.30;95.20
7218;DHT22;3650;53.580;10.094;2023-08-20T00:33:59;21.30;95.10
7218;DHT22;3650;53.580;10.094;2023-08-20T00:36:26;21.30;95.30
7218;DHT22;3650;53.580;10.094;2023-08-20T00:38:53;21.20;95.30
7218;DHT22;3650;53.580;10.094;2023-08-20T00:41:20;21.20;95.20
7218;DHT22;3650;53.580;10.094;2023-08-20T00:43:47;21.20;95.40
7218;DHT22;3650;53.580;10.094;2023-08-20T00:46:14;21.10;95.80
7218;DHT22;3650;53.580;10.094;2023-08-20T00:48:42;21.10;96.00
7218;DHT22;3650;53.580;10.094;2023-08-20T00:51:09;21.20;96.20
7218;DHT22;3650;53.580;10.094;2023-08-20T00:53:36;21.10;96.30
7218;DHT22;3650;53.580;10.094;2023-08-20T00:56:03;21.20;96.50
7218;DHT22;3650;53.580;10.094;2023-08-20T00:58:30;21.00;96.50
7218;DHT22;3650;53.580;10.094;2023-08-20T01:00:57;21.00;96.60
7218;DHT22;3650;53.580;10.094;2023-08-20T01:03:23;21.00;96.70
7218;DHT22;3650;53.580;10.094;2023-08-20T01:05:58;21.10;96.90
7218;DHT22;3650;53.580;10.094;2023-08-20T01:08:35;21.00;96.90
7218;DHT22;3650;53.580;10.094;2023-08-20T01:11:06;20.90;96.90
7218;DHT22;3650;53.580;10.094;2023-08-20T01:13:36;20.90;96.90
7218;DHT22;3650;53.580;10.094;2023-08-20T01:16:03;20.90;97.00
7218;DHT22;3650;53.580;10.094;2023-08-20T01:18:30;20.90;96.80
7218;DHT22;3650;53.580;10.094;2023-08-20T01:21:01;20.90;96.60
7218;DHT22;3650;53.580;10.094;2023-08-20T01:24:01;20.90;96.60
7218;DHT22;3650;53.580;10.094;2023-08-20T01:26:44;20.90;96.60
7218;DHT22;3650;53.580;10.094;2023-08-20T01:29:16;20.90;96.60
7218;DHT22;3650;53.580;10.094;2023-08-20T01:31:44;20.80;96.60
7218;DHT22;3650;53.580;10.094;2023-08-20T01:34:11;20.80;96.60
7218;DHT22;3650;53.580;10.094;2023-08-20T01:36:38;20.80;96.60
7218;DHT22;3650;53.580;10.094;2023-08-20T01:39:06;20.70;96.60
7218;DHT22;3650;53.580;10.094;2023-08-20T01:41:33;20.70;96.20
7218;DHT22;3650;53.580;10.094;2023-08-20T01:44:00;20.60;96.00
7218;DHT22;3650;53.580;10.094;2023-08-20T01:46:29;20.60;96.30
7218;DHT22;3650;53.580;10.094;2023-08-20T01:48:56;20.60;96.50
7218;DHT22;3650;53.580;10.094;2023-08-20T01:51:23;20.50;96.60
7218;DHT22;3650;53.580;10.094;2023-08-20T01:53:50;20.60;96.80
7218;DHT22;3650;53.580;10.094;2023-08-20T01:56:16;20.50;96.80
7218;DHT22;3650;53.580;10.094;2023-08-20T01:58:43;20.50;96.90
7218;DHT22;3650;53.580;10.094;2023-08-20T02:01:10;20.50;97.00
7218;DHT22;3650;53.580;10.094;2023-08-20T02:03:38;20.40;97.00
7218;DHT22;3650;53.580;10.094;2023-08-20T02:06:05;20.40;97.00
7218;DHT22;3650;53.580;10.094;2023-08-20T02:08:32;20.40;97.10
7218;DHT22;3650;53.580;10.094;2023-08-20T02:11:03;20.30;97.00
7218;DHT22;3650;53.580;10.094;2023-08-20T02:13:30;20.30;96.70
7218;DHT22;3650;53.580;10.094;2023-08-20T02:15:58;20.30;96.70
7218;DHT22;3650;53.580;10.094;2023-08-20T02:18:25;20.30;96.80
7218;DHT22;3650;53.580;10.094;2023-08-20T02:20:54;20.30;97.00
7218;DHT22;3650;53.580;10.094;2023-08-20T02:23:23;20.30;97.00
7218;DHT22;3650;53.580;10.094;2023-08-20T02:25:50;20.20;97.10
7218;DHT22;3650;53.580;10.094;2023-08-20T02:28:17;20.20;97.20
7218;DHT22;3650;53.580;10.094;2023-08-20T02:30:45;20.20;97.20
7218;DHT22;3650;53.580;10.094;2023-08-20T02:33:12;20.20;97.30
7218;DHT22;3650;53.580;10.094;2023-08-20T02:35:39;20.20;97.20
7218;DHT22;3650;53.580;10.094;2023-08-20T02:38:07;20.20;97.20
7218;DHT22;3650;53.580;10.094;2023-08-20T02:40:39;20.10;97.50
7218;DHT22;3650;53.580;10.094;2023-08-20T02:43:06;20.10;96.80
7218;DHT22;3650;53.580;10.094;2023-08-20T02:45:39;20.00;96.80
7218;DHT22;3650;53.580;10.094;2023-08-20T02:48:06;20.00;97.00
7218;DHT22;3650;53.580;10.094;2023-08-20T02:50:33;20.00;97.00
7218;DHT22;3650;53.580;10.094;2023-08-20T02:53:00;20.00;97.00
7218;DHT22;3650;53.580;10.094;2023-08-20T02:55:28;19.90;96.90
7218;DHT22;3650;53.580;10.094;2023-08-20T02:57:55;19.90;96.80
7218;DHT22;3650;53.580;10.094;2023-08-20T03:00:23;19.90;97.10
7218;DHT22;3650;53.580;10.094;2023-08-20T03:02:49;19.90;97.20
7218;DHT22;3650;53.580;10.094;2023-08-20T03:05:16;19.90;97.30
7218;DHT22;3650;53.580;10.094;2023-08-20T03:07:43;19.80;97.20
7218;DHT22;3650;53.580;10.094;2023-08-20T03:10:10;19.80;97.30
7218;DHT22;3650;53.580;10.094;2023-08-20T03:12:38;19.80;97.40
7218;DHT22;3650;53.580;10.094;2023-08-20T03:15:07;19.80;97.20
7218;DHT22;3650;53.580;10.094;2023-08-20T03:17:34;19.80;97.20
7218;DHT22;3650;53.580;10.094;2023-08-20T03:20:01;19.80;97.20
7218;DHT22;3650;53.580;10.094;2023-08-20T03:22:31;19.80;97.30
7218;DHT22;3650;53.580;10.094;2023-08-20T03:24:58;19.80;97.40
7218;DHT22;3650;53.580;10.094;2023-08-20T03:27:26;19.80;97.30
7218;DHT22;3650;53.580;10.094;2023-08-20T03:29:54;19.70;97.30
7218;DHT22;3650;53.580;10.094;2023-08-20T03:32:21;19.70;97.30
7218;DHT22;3650;53.580;10.094;2023-08-20T03:34:48;19.70;97.40
7218;DHT22;3650;53.580;10.094;2023-08-20T03:37:15;19.70;97.50
7218;DHT22;3650;53.580;10.094;2023-08-20T03:39:41;19.70;97.30
7218;DHT22;3650;53.580;10.094;2023-08-20T03:42:08;19.60;97.20
7218;DHT22;3650;53.580;10.094;2023-08-20T03:44:35;19.60;97.30
7218;DHT22;3650;53.580;10.094;2023-08-20T03:47:03;19.60;97.30
7218;DHT22;3650;53.580;10.094;2023-08-20T03:49:30;19.60;97.20
7218;DHT22;3650;53.580;10.094;2023-08-20T03:51:57;19.50;97.30
7218;DHT22;3650;53.580;10.094;2023-08-20T03:54:24;19.50;97.30
7218;DHT22;3650;53.580;10.094;2023-08-20T03:56:51;19.50;97.30
7218;DHT22;3650;53.580;10.094;2023-08-20T03:59:17;19.50;97.30
7218;DHT22;3650;53.580;10.094;2023-08-20T04:01:44;19.50;97.30
7218;DHT22;3650;53.580;10.094;2023-08-20T04:04:12;19.50;97.20
7218;DHT22;3650;53.580;10.094;2023-08-20T04:06:39;19.50;97.00
7218;DHT22;3650;53.580;10.094;2023-08-20T04:09:06;19.50;96.80
7218;DHT22;3650;53.580;10.094;2023-08-20T04:11:34;19.50;96.70
7218;DHT22;3650;53.580;10.094;2023-08-20T04:14:01;19.50;96.50
7218;DHT22;3650;53.580;10.094;2023-08-20T04:16:29;19.50;96.40
7218;DHT22;3650;53.580;10.094;2023-08-20T04:18:56;19.50;96.50
7218;DHT22;3650;53.580;10.094;2023-08-20T04:21:24;19.50;96.60
7218;DHT22;3650;53.580;10.094;2023-08-20T04:23:51;19.50;96.50
7218;DHT22;3650;53.580;10.094;2023-08-20T04:26:18;19.40;96.60
7218;DHT22;3650;53.580;10.094;2023-08-20T04:28:45;19.40;96.70
7218;DHT22;3650;53.580;10.094;2023-08-20T04:31:12;19.40;96.70
7218;DHT22;3650;53.580;10.094;2023-08-20T04:33:39;19.40;96.60
7218;DHT22;3650;53.580;10.094;2023-08-20T04:36:06;19.30;96.50
7218;DHT22;3650;53.580;10.094;2023-08-20T04:38:34;19.40;96.70
7218;DHT22;3650;53.580;10.094;2023-08-20T04:41:01;19.30;96.70
7218;DHT22;3650;53.580;10.094;2023-08-20T04:43:28;19.30;96.80
7218;DHT22;3650;53.580;10.094;2023-08-20T04:45:54;19.30;96.80
7218;DHT22;3650;53.580;10.094;2023-08-20T04:48:21;19.20;97.10
7218;DHT22;3650;53.580;10.094;2023-08-20T04:50:48;19.20;97.50
7218;DHT22;3650;53.580;10.094;2023-08-20T04:53:15;19.20;97.60
7218;DHT22;3650;53.580;10.094;2023-08-20T04:55:43;19.30;97.50
7218;DHT22;3650;53.580;10.094;2023-08-20T04:58:10;19.20;97.40
7218;DHT22;3650;53.580;10.094;2023-08-20T05:00:37;19.20;97.40
7218;DHT22;3650;53.580;10.094;2023-08-20T05:03:04;19.20;97.40
7218;DHT22;3650;53.580;10.094;2023-08-20T05:05:31;19.20;97.50
7218;DHT22;3650;53.580;10.094;2023-08-20T05:07:58;19.20;97.60
7218;DHT22;3650;53.580;10.094;2023-08-20T05:10:24;19.20;97.80
7218;DHT22;3650;53.580;10.094;2023-08-20T05:12:53;19.20;97.90
7218;DHT22;3650;53.580;10.094;2023-08-20T05:15:19;19.20;98.00
7218;DHT22;3650;53.580;10.094;2023-08-20T05:17:47;19.20;98.30
7218;DHT22;3650;53.580;10.094;2023-08-20T05:20:14;19.20;98.90
7218;DHT22;3650;53.580;10.094;2023-08-20T05:22:41;19.20;99.20
7218;DHT22;3650;53.580;10.094;2023-08-20T05:25:08;19.30;99.30
7218;DHT22;3650;53.580;10.094;2023-08-20T05:27:35;19.30;99.40
7218;DHT22;3650;53.580;10.094;2023-08-20T05:30:05;19.30;99.90
7218;DHT22;3650;53.580;10.094;2023-08-20T05:32:35;19.30;99.90
7218;DHT22;3650;53.580;10.094;2023-08-20T05:35:02;19.40;99.90
7218;DHT22;3650;53.580;10.094;2023-08-20T05:37:30;19.50;99.90
7218;DHT22;3650;53.580;10.094;2023-08-20T05:39:56;19.50;99.90
7218;DHT22;3650;53.580;10.094;2023-08-20T05:42:23;19.60;99.90
7218;DHT22;3650;53.580;10.094;2023-08-20T05:44:50;19.60;99.90
7218;DHT22;3650;53.580;10.094;2023-08-20T05:47:19;19.70;99.90
7218;DHT22;3650;53.580;10.094;2023-08-20T05:49:45;19.70;99.90
7218;DHT22;3650;53.580;10.094;2023-08-20T05:52:12;19.80;99.90
7218;DHT22;3650;53.580;10.094;2023-08-20T05:54:39;19.80;99.90
7218;DHT22;3650;53.580;10.094;2023-08-20T05:57:06;19.90;99.90
7218;DHT22;3650;53.580;10.094;2023-08-20T05:59:33;19.90;99.90
7218;DHT22;3650;53.580;10.094;2023-08-20T06:02:01;20.00;99.90
7218;DHT22;3650;53.580;10.094;2023-08-20T06:04:30;20.00;99.90
7218;DHT22;3650;53.580;10.094;2023-08-20T06:06:57;20.00;99.90
7218;DHT22;3650;53.580;10.094;2023-08-20T06:09:23;20.10;99.90
7218;DHT22;3650;53.580;10.094;2023-08-20T06:11:50;20.10;99.90
7218;DHT22;3650;53.580;10.094;2023-08-20T06:14:18;20.10;99.90
7218;DHT22;3650;53.580;10.094;2023-08-20T06:16:45;20.10;99.90
7218;DHT22;3650;53.580;10.094;2023-08-20T06:19:11;20.20;99.90
7218;DHT22;3650;53.580;10.094;2023-08-20T06:21:40;20.20;99.90
7218;DHT22;3650;53.580;10.094;2023-08-20T06:24:06;20.20;99.90
7218;DHT22;3650;53.580;10.094;2023-08-20T06:26:34;20.20;99.90
7218;DHT22;3650;53.580;10.094;2023-08-20T06:29:01;20.20;99.90
7218;DHT22;3650;53.580;10.094;2023-08-20T06:31:28;20.20;99.90
7218;DHT22;3650;53.580;10.094;2023-08-20T06:33:55;20.20;99.90
7218;DHT22;3650;53.580;10.094;2023-08-20T06:36:22;20.20;99.70
7218;DHT22;3650;53.580;10.094;2023-08-20T06:38:50;20.20;99.30
7218;DHT22;3650;53.580;10.094;2023-08-20T06:41:17;20.20;99.30
7218;DHT22;3650;53.580;10.094;2023-08-20T06:43:44;20.20;99.20
7218;DHT22;3650;53.580;10.094;2023-08-20T06:46:11;20.20;99.30
7218;DHT22;3650;53.580;10.094;2023-08-20T06:48:38;20.20;99.10
7218;DHT22;3650;53.580;10.094;2023-08-20T06:51:10;20.20;99.00
7218;DHT22;3650;53.580;10.094;2023-08-20T06:53:37;20.20;99.00
7218;DHT22;3650;53.580;10.094;2023-08-20T06:56:05;20.20;98.80
7218;DHT22;3650;53.580;10.094;2023-08-20T06:58:32;20.20;98.90
7218;DHT22;3650;53.580;10.094;2023-08-20T07:00:59;20.30;99.30
7218;DHT22;3650;53.580;10.094;2023-08-20T07:03:32;20.30;99.50
7218;DHT22;3650;53.580;10.094;2023-08-20T07:06:00;20.30;99.60
7218;DHT22;3650;53.580;10.094;2023-08-20T07:08:27;20.30;99.60
7218;DHT22;3650;53.580;10.094;2023-08-20T07:10:54;20.30;99.90
7218;DHT22;3650;53.580;10.094;2023-08-20T07:13:22;20.30;99.90
7218;DHT22;3650;53.580;10.094;2023-08-20T07:15:49;20.30;99.90
7218;DHT22;3650;53.580;10.094;2023-08-20T07:18:16;20.40;99.90
7218;DHT22;3650;53.580;10.094;2023-08-20T07:20:44;20.40;99.90
7218;DHT22;3650;53.580;10.094;2023-08-20T07:23:11;20.40;99.90
7218;DHT22;3650;53.580;10.094;2023-08-20T07:25:39;20.40;99.90
7218;DHT22;3650;53.580;10.094;2023-08-20T07:28:07;20.50;99.90
7218;DHT22;3650;53.580;10.094;2023-08-20T07:30:36;20.40;99.80
7218;DHT22;3650;53.580;10.094;2023-08-20T07:33:03;20.50;99.90
7218;DHT22;3650;53.580;10.094;2023-08-20T07:35:30;20.50;99.90
7218;DHT22;3650;53.580;10.094;2023-08-20T07:37:57;20.50;99.90
7218;DHT22;3650;53.580;10.094;2023-08-20T07:40:24;20.50;99.90
7218;DHT22;3650;53.580;10.094;2023-08-20T07:42:51;20.50;99.90
7218;DHT22;3650;53.580;10.094;2023-08-20T07:45:18;20.50;99.90
7218;DHT22;3650;53.580;10.094;2023-08-20T07:47:46;20.60;99.90
7218;DHT22;3650;53.580;10.094;2023-08-20T07:50:13;20.60;99.90
7218;DHT22;3650;53.580;10.094;2023-08-20T07:52:40;20.70;99.90
7218;DHT22;3650;53.580;10.094;2023-08-20T07:55:07;20.70;99.90
7218;DHT22;3650;53.580;10.094;2023-08-20T07:57:34;20.60;99.80
7218;DHT22;3650;53.580;10.094;2023-08-20T08:00:01;20.70;99.80
7218;DHT22;3650;53.580;10.094;2023-08-20T08:02:29;20.70;99.60
7218;DHT22;3650;53.580;10.094;2023-08-20T08:04:58;20.70;99.70
7218;DHT22;3650;53.580;10.094;2023-08-20T08:07:25;20.80;99.70
7218;DHT22;3650;53.580;10.094;2023-08-20T08:09:52;20.80;99.60
7218;DHT22;3650;53.580;10.094;2023-08-20T08:12:19;20.80;99.50
7218;DHT22;3650;53.580;10.094;2023-08-20T08:14:46;20.80;99.40
7218;DHT22;3650;53.580;10.094;2023-08-20T08:17:14;20.80;99.50
7218;DHT22;3650;53.580;10.094;2023-08-20T08:19:41;20.90;99.60
7218;DHT22;3650;53.580;10.094;2023-08-20T08:22:09;20.90;99.70
7218;DHT22;3650;53.580;10.094;2023-08-20T08:24:36;20.90;99.60
7218;DHT22;3650;53.580;10.094;2023-08-20T08:27:02;21.00;99.40
7218;DHT22;3650;53.580;10.094;2023-08-20T08:29:29;21.00;99.30
7218;DHT22;3650;53.580;10.094;2023-08-20T08:31:56;21.00;99.30
7218;DHT22;3650;53.580;10.094;2023-08-20T08:34:23;21.00;99.00
7218;DHT22;3650;53.580;10.094;2023-08-20T08:36:50;21.10;97.50
7218;DHT22;3650;53.580;10.094;2023-08-20T08:39:18;21.10;97.00
7218;DHT22;3650;53.580;10.094;2023-08-20T08:41:47;21.10;96.20
7218;DHT22;3650;53.580;10.094;2023-08-20T08:44:16;21.10;95.80
7218;DHT22;3650;53.580;10.094;2023-08-20T08:46:43;21.10;95.00
7218;DHT22;3650;53.580;10.094;2023-08-20T08:49:10;21.10;94.80
7218;DHT22;3650;53.580;10.094;2023-08-20T08:51:38;21.20;94.50
7218;DHT22;3650;53.580;10.094;2023-08-20T08:54:05;21.20;94.50
7218;DHT22;3650;53.580;10.094;2023-08-20T08:56:35;21.30;93.90
7218;DHT22;3650;53.580;10.094;2023-08-20T08:59:02;21.30;93.70
7218;DHT22;3650;53.580;10.094;2023-08-20T09:01:29;21.30;93.70
7218;DHT22;3650;53.580;10.094;2023-08-20T09:03:56;21.40;93.70
7218;DHT22;3650;53.580;10.094;2023-08-20T09:06:23;21.40;92.80
7218;DHT22;3650;53.580;10.094;2023-08-20T09:08:50;21.40;92.80
7218;DHT22;3650;53.580;10.094;2023-08-20T09:11:35;21.50;92.30
7218;DHT22;3650;53.580;10.094;2023-08-20T09:14:02;21.50;92.40
7218;DHT22;3650;53.580;10.094;2023-08-20T09:16:30;21.60;92.30
7218;DHT22;3650;53.580;10.094;2023-08-20T09:18:59;21.60;92.00
7218;DHT22;3650;53.580;10.094;2023-08-20T09:21:28;21.70;91.10
7218;DHT22;3650;53.580;10.094;2023-08-20T09:23:55;21.70;90.90
7218;DHT22;3650;53.580;10.094;2023-08-20T09:26:23;21.70;90.70
7218;DHT22;3650;53.580;10.094;2023-08-20T09:28:55;21.80;90.70
7218;DHT22;3650;53.580;10.094;2023-08-20T09:31:37;21.80;90.90
7218;DHT22;3650;53.580;10.094;2023-08-20T09:34:04;21.80;91.00
7218;DHT22;3650;53.580;10.094;2023-08-20T09:36:32;21.90;90.70
7218;DHT22;3650;53.580;10.094;2023-08-20T09:38:59;21.90;90.20
7218;DHT22;3650;53.580;10.094;2023-08-20T09:41:27;21.90;90.10
7218;DHT22;3650;53.580;10.094;2023-08-20T09:43:57;22.00;90.30
7218;DHT22;3650;53.580;10.094;2023-08-20T09:46:26;22.00;90.30
7218;DHT22;3650;53.580;10.094;2023-08-20T09:48:56;22.10;90.20
7218;DHT22;3650;53.580;10.094;2023-08-20T09:51:25;22.10;89.50
7218;DHT22;3650;53.580;10.094;2023-08-20T09:54:00;22.20;90.00
7218;DHT22;3650;53.580;10.094;2023-08-20T09:56:29;22.20;89.70
7218;DHT22;3650;53.580;10.094;2023-08-20T09:58:58;22.20;89.00
7218;DHT22;3650;53.580;10.094;2023-08-20T10:01:26;22.30;88.80
7218;DHT22;3650;53.580;10.094;2023-08-20T10:03:54;22.40;88.40
7218;DHT22;3650;53.580;10.094;2023-08-20T10:06:21;22.40;87.70
7218;DHT22;3650;53.580;10.094;2023-08-20T10:08:50;22.40;87.60
7218;DHT22;3650;53.580;10.094;2023-08-20T10:11:17;22.50;88.50
7218;DHT22;3650;53.580;10.094;2023-08-20T10:13:44;22.50;88.90
7218;DHT22;3650;53.580;10.094;2023-08-20T10:16:13;22.60;89.10
7218;DHT22;3650;53.580;10.094;2023-08-20T10:18:40;22.60;88.90
7218;DHT22;3650;53.580;10.094;2023-08-20T10:21:07;22.70;88.80
7218;DHT22;3650;53.580;10.094;2023-08-20T10:23:35;22.70;88.80
7218;DHT22;3650;53.580;10.094;2023-08-20T10:26:09;22.80;88.50
7218;DHT22;3650;53.580;10.094;2023-08-20T10:28:36;22.80;87.80
7218;DHT22;3650;53.580;10.094;2023-08-20T10:31:07;22.80;87.50
7218;DHT22;3650;53.580;10.094;2023-08-20T10:33:37;22.90;86.70
7218;DHT22;3650;53.580;10.094;2023-08-20T10:36:09;22.90;85.20
7218;DHT22;3650;53.580;10.094;2023-08-20T10:38:36;23.00;83.50
7218;DHT22;3650;53.580;10.094;2023-08-20T10:41:06;23.00;83.00
7218;DHT22;3650;53.580;10.094;2023-08-20T10:43:34;23.10;82.90
7218;DHT22;3650;53.580;10.094;2023-08-20T10:46:06;23.10;83.40
7218;DHT22;3650;53.580;10.094;2023-08-20T10:48:34;23.10;82.40
7218;DHT22;3650;53.580;10.094;2023-08-20T10:51:13;23.20;81.50
7218;DHT22;3650;53.580;10.094;2023-08-20T10:53:43;23.20;80.70
7218;DHT22;3650;53.580;10.094;2023-08-20T10:56:14;23.20;80.20
7218;DHT22;3650;53.580;10.094;2023-08-20T10:58:42;23.20;80.20
7218;DHT22;3650;53.580;10.094;2023-08-20T11:01:18;23.30;79.40
7218;DHT22;3650;53.580;10.094;2023-08-20T11:03:46;23.40;79.90
7218;DHT22;3650;53.580;10.094;2023-08-20T11:06:15;23.40;78.80
7218;DHT22;3650;53.580;10.094;2023-08-20T11:08:42;23.40;78.80
7218;DHT22;3650;53.580;10.094;2023-08-20T11:11:10;23.50;78.30
7218;DHT22;3650;53.580;10.094;2023-08-20T11:13:37;23.50;74.70
7218;DHT22;3650;53.580;10.094;2023-08-20T11:16:05;23.50;73.80
7218;DHT22;3650;53.580;10.094;2023-08-20T11:18:32;23.50;73.80
7218;DHT22;3650;53.580;10.094;2023-08-20T11:21:00;23.50;73.80
7218;DHT22;3650;53.580;10.094;2023-08-20T11:23:28;23.50;74.80
7218;DHT22;3650;53.580;10.094;2023-08-20T11:25:56;23.50;77.40
7218;DHT22;3650;53.580;10.094;2023-08-20T11:28:22;23.60;79.80
7218;DHT22;3650;53.580;10.094;2023-08-20T11:30:51;23.60;81.00
7218;DHT22;3650;53.580;10.094;2023-08-20T11:33:18;23.70;79.90
7218;DHT22;3650;53.580;10.094;2023-08-20T11:35:45;23.80;77.90
7218;DHT22;3650;53.580;10.094;2023-08-20T11:38:12;23.80;76.80
7218;DHT22;3650;53.580;10.094;2023-08-20T11:40:41;23.80;74.00
7218;DHT22;3650;53.580;10.094;2023-08-20T11:43:08;23.90;73.10
7218;DHT22;3650;53.580;10.094;2023-08-20T11:45:48;23.90;73.20
7218;DHT22;3650;53.580;10.094;2023-08-20T11:48:15;24.00;74.00
7218;DHT22;3650;53.580;10.094;2023-08-20T11:50:43;24.00;74.40
7218;DHT22;3650;53.580;10.094;2023-08-20T11:53:11;24.00;70.90
7218;DHT22;3650;53.580;10.094;2023-08-20T11:55:39;24.00;70.90
7218;DHT22;3650;53.580;10.094;2023-08-20T11:58:11;24.10;70.30
7218;DHT22;3650;53.580;10.094;2023-08-20T12:00:38;24.10;70.00
7218;DHT22;3650;53.580;10.094;2023-08-20T12:03:05;24.10;70.10
7218;DHT22;3650;53.580;10.094;2023-08-20T12:05:32;24.10;70.50
7218;DHT22;3650;53.580;10.094;2023-08-20T12:07:59;24.10;69.70
7218;DHT22;3650;53.580;10.094;2023-08-20T12:10:28;24.10;68.90
7218;DHT22;3650;53.580;10.094;2023-08-20T12:12:56;24.20;68.30
7218;DHT22;3650;53.580;10.094;2023-08-20T12:15:25;24.20;68.30
7218;DHT22;3650;53.580;10.094;2023-08-20T12:17:56;24.20;67.10
7218;DHT22;3650;53.580;10.094;2023-08-20T12:20:23;24.20;68.60
7218;DHT22;3650;53.580;10.094;2023-08-20T12:22:50;24.30;68.10
7218;DHT22;3650;53.580;10.094;2023-08-20T12:25:17;24.30;68.10
7218;DHT22;3650;53.580;10.094;2023-08-20T12:27:44;24.40;68.20
7218;DHT22;3650;53.580;10.094;2023-08-20T12:30:12;24.50;68.90
7218;DHT22;3650;53.580;10.094;2023-08-20T12:32:40;24.50;67.80
7218;DHT22;3650;53.580;10.094;2023-08-20T12:35:07;24.50;65.90
7218;DHT22;3650;53.580;10.094;2023-08-20T12:37:34;24.50;64.70
7218;DHT22;3650;53.580;10.094;2023-08-20T12:40:01;24.60;65.70
7218;DHT22;3650;53.580;10.094;2023-08-20T12:42:29;24.70;67.90
7218;DHT22;3650;53.580;10.094;2023-08-20T12:44:56;24.80;65.70
7218;DHT22;3650;53.580;10.094;2023-08-20T12:47:23;24.80;63.60
7218;DHT22;3650;53.580;10.094;2023-08-20T12:49:51;24.90;63.50
7218;DHT22;3650;53.580;10.094;2023-08-20T12:52:18;24.90;61.20
7218;DHT22;3650;53.580;10.094;2023-08-20T12:54:45;25.00;59.60
7218;DHT22;3650;53.580;10.094;2023-08-20T12:57:12;25.00;59.00
7218;DHT22;3650;53.580;10.094;2023-08-20T12:59:39;25.00;59.10
7218;DHT22;3650;53.580;10.094;2023-08-20T13:02:06;25.00;59.70
7218;DHT22;3650;53.580;10.094;2023-08-20T13:04:34;25.10;57.50
7218;DHT22;3650;53.580;10.094;2023-08-20T13:07:03;25.10;56.00
7218;DHT22;3650;53.580;10.094;2023-08-20T13:09:31;25.10;55.20
7218;DHT22;3650;53.580;10.094;2023-08-20T13:12:01;25.10;54.40
7218;DHT22;3650;53.580;10.094;2023-08-20T13:14:30;25.20;53.30
7218;DHT22;3650;53.580;10.094;2023-08-20T13:16:57;25.20;53.40
7218;DHT22;3650;53.580;10.094;2023-08-20T13:19:24;25.30;53.20
7218;DHT22;3650;53.580;10.094;2023-08-20T13:21:51;25.30;54.10
7218;DHT22;3650;53.580;10.094;2023-08-20T13:24:20;25.30;53.60
7218;DHT22;3650;53.580;10.094;2023-08-20T13:26:47;25.40;53.50
7218;DHT22;3650;53.580;10.094;2023-08-20T13:29:13;25.40;53.00
7218;DHT22;3650;53.580;10.094;2023-08-20T13:31:40;25.50;52.00
7218;DHT22;3650;53.580;10.094;2023-08-20T13:34:07;25.50;51.60
7218;DHT22;3650;53.580;10.094;2023-08-20T13:36:34;25.60;50.30
7218;DHT22;3650;53.580;10.094;2023-08-20T13:39:01;25.60;50.60
7218;DHT22;3650;53.580;10.094;2023-08-20T13:41:29;25.60;50.60
7218;DHT22;3650;53.580;10.094;2023-08-20T13:43:56;25.60;51.80
7218;DHT22;3650;53.580;10.094;2023-08-20T13:46:23;25.70;52.30
7218;DHT22;3650;53.580;10.094;2023-08-20T13:48:50;25.70;54.90
7218;DHT22;3650;53.580;10.094;2023-08-20T13:51:17;25.70;51.90
7218;DHT22;3650;53.580;10.094;2023-08-20T13:53:44;25.70;50.80
7218;DHT22;3650;53.580;10.094;2023-08-20T13:56:10;25.70;50.80
7218;DHT22;3650;53.580;10.094;2023-08-20T13:58:39;25.70;50.70
7218;DHT22;3650;53.580;10.094;2023-08-20T14:01:06;25.70;50.70
7218;DHT22;3650;53.580;10.094;2023-08-20T14:03:32;25.70;51.50
7218;DHT22;3650;53.580;10.094;2023-08-20T14:05:59;25.60;50.60
7218;DHT22;3650;53.580;10.094;2023-08-20T14:08:26;25.60;51.40
7218;DHT22;3650;53.580;10.094;2023-08-20T14:10:53;25.70;50.70
7218;DHT22;3650;53.580;10.094;2023-08-20T14:13:20;25.60;51.80
7218;DHT22;3650;53.580;10.094;2023-08-20T14:15:48;25.50;51.10
7218;DHT22;3650;53.580;10.094;2023-08-20T14:18:14;25.50;52.10
7218;DHT22;3650;53.580;10.094;2023-08-20T14:20:41;25.50;51.90
7218;DHT22;3650;53.580;10.094;2023-08-20T14:23:08;25.50;51.10
7218;DHT22;3650;53.580;10.094;2023-08-20T14:25:35;25.50;51.50
7218;DHT22;3650;53.580;10.094;2023-08-20T14:28:02;25.50;51.50
7218;DHT22;3650;53.580;10.094;2023-08-20T14:30:29;25.50;51.80
7218;DHT22;3650;53.580;10.094;2023-08-20T14:32:59;25.50;51.10
7218;DHT22;3650;53.580;10.094;2023-08-20T14:35:25;25.50;50.70
7218;DHT22;3650;53.580;10.094;2023-08-20T14:37:53;25.50;50.60
7218;DHT22;3650;53.580;10.094;2023-08-20T14:40:20;25.50;49.80
7218;DHT22;3650;53.580;10.094;2023-08-20T14:42:47;25.50;50.60
7218;DHT22;3650;53.580;10.094;2023-08-20T14:45:14;25.50;50.60
7218;DHT22;3650;53.580;10.094;2023-08-20T14:47:41;25.50;50.60
7218;DHT22;3650;53.580;10.094;2023-08-20T14:50:10;25.50;50.60
7218;DHT22;3650;53.580;10.094;2023-08-20T14:52:37;25.50;49.60
7218;DHT22;3650;53.580;10.094;2023-08-20T14:55:05;25.50;50.20
7218;DHT22;3650;53.580;10.094;2023-08-20T14:57:33;25.50;49.10
7218;DHT22;3650;53.580;10.094;2023-08-20T15:00:00;25.50;49.70
7218;DHT22;3650;53.580;10.094;2023-08-20T15:02:30;25.50;50.60
7218;DHT22;3650;53.580;10.094;2023-08-20T15:04:57;25.40;50.50
7218;DHT22;3650;53.580;10.094;2023-08-20T15:07:25;25.40;50.60
7218;DHT22;3650;53.580;10.094;2023-08-20T15:09:52;25.40;50.50
7218;DHT22;3650;53.580;10.094;2023-08-20T15:12:19;25.50;50.60
7218;DHT22;3650;53.580;10.094;2023-08-20T15:14:46;25.40;49.80
7218;DHT22;3650;53.580;10.094;2023-08-20T15:17:13;25.40;49.30
7218;DHT22;3650;53.580;10.094;2023-08-20T15:19:40;25.40;48.70
7218;DHT22;3650;53.580;10.094;2023-08-20T15:22:07;25.40;49.40
7218;DHT22;3650;53.580;10.094;2023-08-20T15:24:35;25.40;48.90
7218;DHT22;3650;53.580;10.094;2023-08-20T15:27:02;25.40;49.10
7218;DHT22;3650;53.580;10.094;2023-08-20T15:29:29;25.40;48.20
7218;DHT22;3650;53.580;10.094;2023-08-20T15:31:55;25.40;48.90
7218;DHT22;3650;53.580;10.094;2023-08-20T15:34:22;25.40;47.90
7218;DHT22;3650;53.580;10.094;2023-08-20T15:36:49;25.40;47.00
7218;DHT22;3650;53.580;10.094;2023-08-20T15:39:16;25.40;47.30
7218;DHT22;3650;53.580;10.094;2023-08-20T15:41:45;25.40;47.40
7218;DHT22;3650;53.580;10.094;2023-08-20T15:44:12;25.40;47.70
7218;DHT22;3650;53.580;10.094;2023-08-20T15:46:39;25.40;48.20
7218;DHT22;3650;53.580;10.094;2023-08-20T15:49:06;25.40;48.20